Time;durP1;ratioP1;P1;durP2;ratioP2;P2;SDS_P1;SDS_P2;PMS_P1;PMS_P2;Temp;Humidity;BMP_temperature;BMP_pressure;BME280_temperature;BME280_humidity;BME280_pressure;Samples;Min_cycle;Max_cycle;Signal;HPM_P1;HPM_P2
2021/04/03 00:00:38;;;;;;;;;;;;;;;;;;5069082;28;930;-64
2021/04/03 00:03:04;;;;;;;;;;;;;;;;;;5069160;28;846;-64
2021/04/03 00:05:30;;;;;;;;;;;;;;;;;;5069208;28;1963;-64
2021/04/03 00:07:56;;;;;;;;;;;;;;;;;;5068641;28;850;-64
2021/04/03 00:10:26;;;;;;;;;;;;;;;;;;5068551;28;831;-64
2021/04/03 00:12:52;;;;;;;;;;;;;;;;;;5068814;28;875;-64
2021/04/03 00:15:18;;;;;;;;;;;;;;;;;;5053421;28;1553;-64
2021/04/03 00:17:43;;;;;;;;;;;;;;;;;;5029239;28;915;-64
2021/04/03 00:20:13;;;;;;;;;;;;;;;;;;5028852;28;824;-64
2021/04/03 00:22:38;;;;;;;;;;;;;;;;;;5029316;28;869;-64
2021/04/03 00:25:04;;;;;;;;;;;;;;;;;;5028533;28;1949;-64
2021/04/03 00:27:30;;;;;;;;;;;;;;;;;;5028760;28;1129;-64
2021/04/03 00:29:55;;;;;;;;;;;;;;;;;;5029251;28;856;-64
2021/04/03 00:32:21;;;;;;;;;;;;;;;;;;5027319;28;1364;-64
2021/04/03 00:34:46;;;;;;;;;;;;;;;;;;5029316;28;847;-64
2021/04/03 00:37:11;;;;;;;;;;;;;;;;;;5028361;28;823;-63
2021/04/03 00:39:37;;;;;;;;;;;;;;;;;;5028309;28;902;-64
2021/04/03 00:42:18;;;;;;;;;;;;;;;;;;5027877;28;889;-63
2021/04/03 00:44:44;;;;;;;;;;;;;;;;;;5028647;28;846;-63
2021/04/03 00:47:09;;;;;;;;;;;;;;;;;;5028624;28;1894;-63
2021/04/03 00:49:35;;;;;;;;;;;;;;;;;;5026715;28;942;-63
2021/04/03 00:52:07;;;;;;;;;;;;;;;;;;5027864;28;902;-64
2021/04/03 00:54:33;;;;;;;;;;;;;;;;;;5057710;28;1286;-64
2021/04/03 00:56:58;;;;;;;;;;;;;;;;;;5068217;28;881;-64
2021/04/03 00:59:23;;;;;;;;;;;;;;;;;;5068053;28;925;-64
2021/04/03 01:01:49;;;;;;;;;;;;;;;;;;5064027;28;1029;-64
2021/04/03 01:04:14;;;;;;;;;;;;;;;;;;5068609;28;819;-64
2021/04/03 01:06:40;;;;;;;;;;;;;;;;;;5067501;28;1881;-64
2021/04/03 01:09:05;;;;;;;;;;;;;;;;;;5066695;28;926;-63
2021/04/03 01:11:32;;;;;;;;;;;;;;;;;;5066853;28;860;-63
2021/04/03 01:14:09;;;;;;;;;;;;;;;;;;5067772;28;862;-64
2021/04/03 01:16:35;;;;;;;;;;;;;;;;;;5067549;28;794;-63
2021/04/03 01:19:03;;;;;;;;;;;;;;;;;;5068033;28;827;-63
2021/04/03 01:21:47;;;;;;;;;;;;;;;;;;5066329;28;870;-64
2021/04/03 01:24:15;;;;;;;;;;;;;;;;;;5067598;28;815;-65
2021/04/03 01:26:41;;;;;;;;;;;;;;;;;;5067519;28;1926;-64
2021/04/03 01:29:09;;;;;;;;;;;;;;;;;;5067878;28;875;-63
2021/04/03 01:31:38;;;;;;;;;;;;;;;;;;5067384;28;843;-63
2021/04/03 01:34:07;;;;;;;;;;;;;;;;;;5066080;28;816;-64
2021/04/03 01:36:33;;;;;;;;;;;;;;;;;;5067129;28;831;-63
2021/04/03 01:38:58;;;;;;;;;;;;;;;;;;5067580;28;811;-63
2021/04/03 01:41:25;;;;;;;;;;;;;;;;;;5066781;28;881;-63
2021/04/03 01:43:52;;;;;;;;;;;;;;;;;;5066959;28;820;-63
2021/04/03 01:46:20;;;;;;;;;;;;;;;;;;5068515;28;1909;-63
2021/04/03 01:48:46;;;;;;;;;;;;;;;;;;5068174;28;842;-63
2021/04/03 01:51:12;;;;;;;;;;;;;;;;;;5066827;28;838;-63
2021/04/03 01:53:38;;;;;;;;;;;;;;;;;;5059175;28;1110;-65
2021/04/03 01:56:04;;;;;;;;;;;;;;;;;;5047398;28;791;-64
2021/04/03 01:58:30;;;;;;;;;;;;;;;;;;5045543;28;1174;-64
2021/04/03 02:00:56;;;;;;;;;;;;;;;;;;5047326;28;890;-65
2021/04/03 02:03:22;;;;;;;;;;;;;;;;;;5047529;28;862;-65
2021/04/03 02:05:48;;;;;;;;;;;;;;;;;;5047917;28;1898;-65
2021/04/03 02:08:14;;;;;;;;;;;;;;;;;;5047505;28;807;-64
2021/04/03 02:10:40;;;;;;;;;;;;;;;;;;5047496;28;807;-65
2021/04/03 02:13:06;;;;;;;;;;;;;;;;;;5046898;28;855;-65
2021/04/03 02:15:34;;;;;;;;;;;;;;;;;;5047188;28;832;-64
2021/04/03 02:18:03;;;;;;;;;;;;;;;;;;5045951;28;1508;-65
2021/04/03 02:20:28;;;;;;;;;;;;;;;;;;5046769;28;651;-65
2021/04/03 02:22:54;;;;;;;;;;;;;;;;;;5046498;28;804;-65
2021/04/03 02:25:19;;;;;;;;;;;;;;;;;;5046862;28;1959;-66
2021/04/03 02:27:46;;;;;;;;;;;;;;;;;;5048133;28;1082;-65
2021/04/03 02:30:15;;;;;;;;;;;;;;;;;;5046564;28;906;-65
2021/04/03 02:32:45;;;;;;;;;;;;;;;;;;5046633;28;862;-64
2021/04/03 02:35:11;;;;;;;;;;;;;;;;;;5047206;28;867;-65
2021/04/03 02:37:37;;;;;;;;;;;;;;;;;;5046542;28;893;-65
2021/04/03 02:40:07;;;;;;;;;;;;;;;;;;5046771;28;897;-64
2021/04/03 02:42:33;;;;;;;;;;;;;;;;;;5047158;28;839;-64
2021/04/03 02:45:03;;;;;;;;;;;;;;;;;;5046854;28;963;-64
2021/04/03 02:47:33;;;;;;;;;;;;;;;;;;5046739;28;874;-64
2021/04/03 02:50:01;;;;;;;;;;;;;;;;;;5049248;28;850;-64
2021/04/03 02:52:27;;;;;;;;;;;;;;;;;;5050707;28;894;-64
2021/04/03 02:54:53;;;;;;;;;;;;;;;;;;5068182;28;1086;-64
2021/04/03 02:57:20;;;;;;;;;;;;;;;;;;5066669;28;1148;-65
2021/04/03 02:59:55;;;;;;;;;;;;;;;;;;5071179;28;846;-64
2021/04/03 03:02:23;;;;;;;;;;;;;;;;;;5070284;28;890;-63
2021/04/03 03:04:49;;;;;;;;;;;;;;;;;;5070741;28;888;-65
2021/04/03 03:07:16;;;;;;;;;;;;;;;;;;5071400;28;1945;-64
2021/04/03 03:09:42;;;;;;;;;;;;;;;;;;5069189;28;895;-64
2021/04/03 03:12:11;;;;;;;;;;;;;;;;;;5070111;28;815;-64
2021/04/03 03:14:37;;;;;;;;;;;;;;;;;;5070108;28;905;-64
2021/04/03 03:17:03;;;;;;;;;;;;;;;;;;5070639;28;870;-64
2021/04/03 03:19:29;;;;;;;;;;;;;;;;;;5070111;28;839;-64
2021/04/03 03:21:55;;;;;;;;;;;;;;;;;;5069292;28;925;-64
2021/04/03 03:24:21;;;;;;;;;;;;;;;;;;5056833;28;2558;-64
2021/04/03 03:26:47;;;;;;;;;;;;;;;;;;5041574;28;1890;-64
2021/04/03 03:29:12;;;;;;;;;;;;;;;;;;5049802;28;886;-64
2021/04/03 03:31:39;;;;;;;;;;;;;;;;;;5049592;28;846;-63
2021/04/03 03:34:05;;;;;;;;;;;;;;;;;;5050237;28;842;-63
2021/04/03 03:36:30;;;;;;;;;;;;;;;;;;5049300;28;795;-64
2021/04/03 03:38:57;;;;;;;;;;;;;;;;;;5049264;28;855;-64
2021/04/03 03:41:25;;;;;;;;;;;;;;;;;;5049863;28;835;-63
2021/04/03 03:43:51;;;;;;;;;;;;;;;;;;5049450;28;824;-64
2021/04/03 03:46:16;;;;;;;;;;;;;;;;;;5049845;28;1903;-63
2021/04/03 03:48:42;;;;;;;;;;;;;;;;;;5049105;28;827;-64
2021/04/03 03:51:07;;;;;;;;;;;;;;;;;;5046234;28;2662;-64
2021/04/03 03:53:32;;;;;;;;;;;;;;;;;;5047319;28;1163;-64
2021/04/03 03:55:59;;;;;;;;;;;;;;;;;;5069456;28;843;-64
2021/04/03 03:58:24;;;;;;;;;;;;;;;;;;5069596;28;866;-65
2021/04/03 04:00:50;;;;;;;;;;;;;;;;;;5068176;28;902;-65
2021/04/03 04:03:15;;;;;;;;;;;;;;;;;;5069431;28;815;-64
2021/04/03 04:05:41;;;;;;;;;;;;;;;;;;5069065;28;1882;-65
2021/04/03 04:08:06;;;;;;;;;;;;;;;;;;5069201;28;886;-65
2021/04/03 04:10:32;;;;;;;;;;;;;;;;;;5068724;28;814;-65
2021/04/03 04:12:58;;;;;;;;;;;;;;;;;;5068320;28;869;-65
2021/04/03 04:15:23;;;;;;;;;;;;;;;;;;5068910;28;842;-64
2021/04/03 04:17:48;;;;;;;;;;;;;;;;;;5069596;28;906;-64
2021/04/03 04:20:14;;;;;;;;;;;;;;;;;;5067895;28;1104;-65
2021/04/03 04:22:40;;;;;;;;;;;;;;;;;;5068926;28;862;-65
2021/04/03 04:25:06;;;;;;;;;;;;;;;;;;5068562;28;905;-65
2021/04/03 04:27:31;;;;;;;;;;;;;;;;;;5068608;28;875;-65
2021/04/03 04:30:08;;;;;;;;;;;;;;;;;;5068486;28;897;-65
2021/04/03 04:32:34;;;;;;;;;;;;;;;;;;5068861;28;818;-65
2021/04/03 04:34:59;;;;;;;;;;;;;;;;;;5068215;28;827;-64
2021/04/03 04:37:25;;;;;;;;;;;;;;;;;;5067012;28;1174;-65
2021/04/03 04:39:50;;;;;;;;;;;;;;;;;;5069032;28;914;-64
2021/04/03 04:42:15;;;;;;;;;;;;;;;;;;5069354;28;870;-65
2021/04/03 04:44:41;;;;;;;;;;;;;;;;;;5068091;28;963;-64
2021/04/03 04:47:06;;;;;;;;;;;;;;;;;;5068333;28;1890;-65
2021/04/03 04:49:31;;;;;;;;;;;;;;;;;;5068372;28;791;-65
2021/04/03 04:51:57;;;;;;;;;;;;;;;;;;5068337;28;934;-64
2021/04/03 04:54:22;;;;;;;;;;;;;;;;;;5053940;28;1214;-65
2021/04/03 04:56:47;;;;;;;;;;;;;;;;;;5047744;28;871;-65
2021/04/03 04:59:13;;;;;;;;;;;;;;;;;;5047678;28;906;-64
2021/04/03 05:01:38;;;;;;;;;;;;;;;;;;5048201;28;859;-64
2021/04/03 05:04:03;;;;;;;;;;;;;;;;;;5049373;28;1160;-64
2021/04/03 05:06:29;;;;;;;;;;;;;;;;;;5049135;28;1951;-64
2021/04/03 05:08:54;;;;;;;;;;;;;;;;;;5048479;28;812;-64
2021/04/03 05:11:20;;;;;;;;;;;;;;;;;;5046630;28;874;-65
2021/04/03 05:13:45;;;;;;;;;;;;;;;;;;5048668;28;826;-64
2021/04/03 05:16:10;;;;;;;;;;;;;;;;;;5047750;28;807;-64
2021/04/03 05:18:36;;;;;;;;;;;;;;;;;;5046238;28;889;-64
2021/04/03 05:21:03;;;;;;;;;;;;;;;;;;5047575;28;807;-64
2021/04/03 05:23:28;;;;;;;;;;;;;;;;;;5047117;28;858;-64
2021/04/03 05:25:54;;;;;;;;;;;;;;;;;;5047300;28;1898;-64
2021/04/03 05:28:19;;;;;;;;;;;;;;;;;;5047580;28;898;-65
2021/04/03 05:30:44;;;;;;;;;;;;;;;;;;5048542;28;807;-64
2021/04/03 05:33:10;;;;;;;;;;;;;;;;;;5047178;28;1057;-64
2021/04/03 05:35:35;;;;;;;;;;;;;;;;;;5047047;28;855;-63
2021/04/03 05:38:01;;;;;;;;;;;;;;;;;;5047856;28;839;-64
2021/04/03 05:40:26;;;;;;;;;;;;;;;;;;5047545;28;906;-64
2021/04/03 05:42:52;;;;;;;;;;;;;;;;;;5047307;28;925;-65
2021/04/03 05:45:18;;;;;;;;;;;;;;;;;;5047803;28;1898;-64
2021/04/03 05:47:43;;;;;;;;;;;;;;;;;;5047185;28;839;-64
2021/04/03 05:50:10;;;;;;;;;;;;;;;;;;5046791;28;815;-64
2021/04/03 05:52:36;;;;;;;;;;;;;;;;;;5047047;28;1021;-63
2021/04/03 05:55:02;;;;;;;;;;;;;;;;;;5066757;28;1148;-63
2021/04/03 05:57:27;;;;;;;;;;;;;;;;;;5067193;28;831;-63
2021/04/03 05:59:53;;;;;;;;;;;;;;;;;;5067288;28;655;-64
2021/04/03 06:02:18;;;;;;;;;;;;;;;;;;5067977;28;800;-63
2021/04/03 06:04:43;;;;;;;;;;;;;;;;;;5067049;28;831;-63
2021/04/03 06:07:09;;;;;;;;;;;;;;;;;;5067051;28;1898;-63
2021/04/03 06:09:35;;;;;;;;;;;;;;;;;;5067020;28;918;-64
2021/04/03 06:12:01;;;;;;;;;;;;;;;;;;5067319;28;1082;-63
2021/04/03 06:14:26;;;;;;;;;;;;;;;;;;5066798;28;830;-63
2021/04/03 06:16:52;;;;;;;;;;;;;;;;;;5066676;28;938;-63
2021/04/03 06:19:20;;;;;;;;;;;;;;;;;;5068243;28;858;-63
2021/04/03 06:21:52;;;;;;;;;;;;;;;;;;5067934;28;822;-64
2021/04/03 06:24:29;;;;;;;;;;;;;;;;;;5070855;28;827;-63
2021/04/03 06:27:11;;;;;;;;;;;;;;;;;;5070838;28;1973;-63
2021/04/03 06:29:40;;;;;;;;;;;;;;;;;;5069452;28;910;-63
2021/04/03 06:32:11;;;;;;;;;;;;;;;;;;5070880;28;874;-63
2021/04/03 06:34:36;;;;;;;;;;;;;;;;;;5069092;28;1501;-63
2021/04/03 06:37:02;;;;;;;;;;;;;;;;;;5069460;28;855;-63
2021/04/03 06:39:28;;;;;;;;;;;;;;;;;;5070431;28;823;-63
2021/04/03 06:41:53;;;;;;;;;;;;;;;;;;5069506;28;880;-64
2021/04/03 06:44:20;;;;;;;;;;;;;;;;;;5070256;28;984;-66
2021/04/03 06:46:46;;;;;;;;;;;;;;;;;;5071478;28;1894;-63
2021/04/03 06:49:12;;;;;;;;;;;;;;;;;;5070613;28;838;-64
2021/04/03 06:51:38;;;;;;;;;;;;;;;;;;5070212;28;866;-65
2021/04/03 06:54:05;;;;;;;;;;;;;;;;;;5057778;28;1161;-64
2021/04/03 06:56:34;;;;;;;;;;;;;;;;;;5050225;28;866;-65
2021/04/03 06:59:12;;;;;;;;;;;;;;;;;;5050259;28;887;-64
2021/04/03 07:01:37;;;;;;;;;;;;;;;;;;5049706;28;831;-65
2021/04/03 07:04:08;;;;;;;;;;;;;;;;;;5049192;28;674;-65
2021/04/03 07:06:35;;;;;;;;;;;;;;;;;;5050267;28;1969;-64
2021/04/03 07:09:01;;;;;;;;;;;;;;;;;;5052827;28;1010;-63
2021/04/03 07:11:27;;;;;;;;;;;;;;;;;;5050733;28;823;-65
2021/04/03 07:13:53;;;;;;;;;;;;;;;;;;5049942;28;863;-65
2021/04/03 07:16:20;;;;;;;;;;;;;;;;;;5050981;28;890;-65
2021/04/03 07:18:47;;;;;;;;;;;;;;;;;;5051281;28;831;-64
2021/04/03 07:21:12;;;;;;;;;;;;;;;;;;5049768;28;827;-65
2021/04/03 07:23:38;;;;;;;;;;;;;;;;;;5049196;28;862;-65
2021/04/03 07:26:04;;;;;;;;;;;;;;;;;;5049969;28;1958;-64
2021/04/03 07:28:37;;;;;;;;;;;;;;;;;;5048113;28;796;-64
2021/04/03 07:31:02;;;;;;;;;;;;;;;;;;5049634;28;827;-64
2021/04/03 07:33:28;;;;;;;;;;;;;;;;;;5049346;28;902;-64
2021/04/03 07:35:55;;;;;;;;;;;;;;;;;;5048048;28;859;-65
2021/04/03 07:38:24;;;;;;;;;;;;;;;;;;5049214;28;942;-65
2021/04/03 07:40:57;;;;;;;;;;;;;;;;;;5049403;28;807;-65
2021/04/03 07:43:28;;;;;;;;;;;;;;;;;;5048963;28;941;-65
2021/04/03 07:45:54;;;;;;;;;;;;;;;;;;5049181;28;1901;-65
2021/04/03 07:48:38;;;;;;;;;;;;;;;;;;5049524;28;894;-65
2021/04/03 07:51:07;;;;;;;;;;;;;;;;;;5049037;28;823;-64
2021/04/03 07:53:40;;;;;;;;;;;;;;;;;;5054584;28;1319;-64
2021/04/03 07:56:07;;;;;;;;;;;;;;;;;;5069801;28;811;-64
2021/04/03 07:58:33;;;;;;;;;;;;;;;;;;5069292;28;862;-65
2021/04/03 08:01:00;;;;;;;;;;;;;;;;;;5067553;28;883;-64
2021/04/03 08:03:28;;;;;;;;;;;;;;;;;;5069260;28;847;-64
2021/04/03 08:06:04;;;;;;;;;;;;;;;;;;5068728;28;1894;-64
2021/04/03 08:08:30;;;;;;;;;;;;;;;;;;5066891;28;1335;-64
2021/04/03 08:11:10;;;;;;;;;;;;;;;;;;5068958;28;842;-63
2021/04/03 08:13:36;;;;;;;;;;;;;;;;;;5067930;28;1318;-64
2021/04/03 08:16:04;;;;;;;;;;;;;;;;;;5068373;28;910;-64
2021/04/03 08:18:29;;;;;;;;;;;;;;;;;;5068190;28;914;-64
2021/04/03 08:20:55;;;;;;;;;;;;;;;;;;5069038;28;1076;-64
2021/04/03 08:23:31;;;;;;;;;;;;;;;;;;5067123;28;1171;-64
2021/04/03 08:25:56;;;;;;;;;;;;;;;;;;5068603;28;1898;-64
2021/04/03 08:28:21;;;;;;;;;;;;;;;;;;5067385;28;1338;-65
2021/04/03 08:30:47;;;;;;;;;;;;;;;;;;5069700;28;839;-64
2021/04/03 08:33:13;;;;;;;;;;;;;;;;;;5068906;28;847;-64
2021/04/03 08:35:40;;;;;;;;;;;;;;;;;;5068222;28;803;-63
2021/04/03 08:38:13;;;;;;;;;;;;;;;;;;5068581;28;834;-63
2021/04/03 08:40:39;;;;;;;;;;;;;;;;;;5067974;28;886;-64
2021/04/03 08:43:04;;;;;;;;;;;;;;;;;;5066537;28;857;-64
2021/04/03 08:45:36;;;;;;;;;;;;;;;;;;5067924;28;1909;-64
2021/04/03 08:48:03;;;;;;;;;;;;;;;;;;5067613;28;818;-64
2021/04/03 08:50:28;;;;;;;;;;;;;;;;;;5067548;28;818;-64
2021/04/03 08:53:00;;;;;;;;;;;;;;;;;;5065630;28;1106;-64
2021/04/03 08:55:26;;;;;;;;;;;;;;;;;;5048328;28;834;-64
2021/04/03 08:57:52;;;;;;;;;;;;;;;;;;5047014;28;870;-64
2021/04/03 09:00:20;;;;;;;;;;;;;;;;;;5048735;28;795;-64
2021/04/03 09:02:47;;;;;;;;;;;;;;;;;;5048609;28;871;-63
2021/04/03 09:05:13;;;;;;;;;;;;;;;;;;5047471;28;820;-64
2021/04/03 09:07:38;;;;;;;;;;;;;;;;;;5045763;28;1914;-63
2021/04/03 09:10:05;;;;;;;;;;;;;;;;;;5047869;28;815;-64
2021/04/03 09:12:31;;;;;;;;;;;;;;;;;;5046590;28;898;-64
2021/04/03 09:14:56;;;;;;;;;;;;;;;;;;5047677;28;842;-64
2021/04/03 09:17:25;;;;;;;;;;;;;;;;;;5049988;28;1088;-64
2021/04/03 09:19:52;;;;;;;;;;;;;;;;;;5047533;28;843;-63
2021/04/03 09:22:19;;;;;;;;;;;;;;;;;;5046998;28;815;-63
2021/04/03 09:24:46;;;;;;;;;;;;;;;;;;5047040;28;902;-64
2021/04/03 09:27:16;;;;;;;;;;;;;;;;;;5046966;28;1894;-63
2021/04/03 09:29:43;;;;;;;;;;;;;;;;;;5047339;28;828;-64
2021/04/03 09:32:09;;;;;;;;;;;;;;;;;;5047131;28;812;-63
2021/04/03 09:34:35;;;;;;;;;;;;;;;;;;5046097;28;923;-64
2021/04/03 09:37:12;;;;;;;;;;;;;;;;;;5045761;28;895;-63
2021/04/03 09:39:42;;;;;;;;;;;;;;;;;;5047100;28;811;-63
2021/04/03 09:42:11;;;;;;;;;;;;;;;;;;5048002;28;827;-62
2021/04/03 09:44:37;;;;;;;;;;;;;;;;;;5047443;28;846;-63
2021/04/03 09:47:02;;;;;;;;;;;;;;;;;;5046873;28;1983;-62
2021/04/03 09:49:28;;;;;;;;;;;;;;;;;;5046982;28;1253;-62
2021/04/03 09:51:56;;;;;;;;;;;;;;;;;;5047656;28;906;-63
2021/04/03 09:54:21;;;;;;;;;;;;;;;;;;5060708;28;1122;-65
2021/04/03 09:56:48;;;;;;;;;;;;;;;;;;5067640;28;674;-64
2021/04/03 09:59:13;;;;;;;;;;;;;;;;;;5066847;28;863;-64
2021/04/03 10:01:38;;;;;;;;;;;;;;;;;;5067650;28;854;-63
2021/04/03 10:04:04;;;;;;;;;;;;;;;;;;5067349;28;920;-63
2021/04/03 10:06:29;;;;;;;;;;;;;;;;;;5067221;28;1886;-64
2021/04/03 10:08:54;;;;;;;;;;;;;;;;;;5067086;28;854;-63
2021/04/03 10:11:20;;;;;;;;;;;;;;;;;;5066957;28;973;-64
2021/04/03 10:13:45;;;;;;;;;;;;;;;;;;5067838;28;870;-63
2021/04/03 10:16:11;;;;;;;;;;;;;;;;;;5067319;28;885;-62
2021/04/03 10:18:36;;;;;;;;;;;;;;;;;;5064917;28;888;-63
2021/04/03 10:21:01;;;;;;;;;;;;;;;;;;5066990;28;965;-63
2021/04/03 10:23:27;;;;;;;;;;;;;;;;;;5067417;28;834;-63
2021/04/03 10:25:52;;;;;;;;;;;;;;;;;;5066702;28;1885;-63
2021/04/03 10:28:18;;;;;;;;;;;;;;;;;;5066247;28;843;-64
2021/04/03 10:30:43;;;;;;;;;;;;;;;;;;5067042;28;866;-63
2021/04/03 10:33:08;;;;;;;;;;;;;;;;;;5067516;28;862;-63
2021/04/03 10:35:34;;;;;;;;;;;;;;;;;;5066833;28;763;-63
2021/04/03 10:37:59;;;;;;;;;;;;;;;;;;5066753;28;831;-62
2021/04/03 10:40:24;;;;;;;;;;;;;;;;;;5067155;28;826;-63
2021/04/03 10:42:50;;;;;;;;;;;;;;;;;;5066491;28;925;-66
2021/04/03 10:45:15;;;;;;;;;;;;;;;;;;5067570;28;803;-62
2021/04/03 10:47:41;;;;;;;;;;;;;;;;;;5066940;28;2023;-62
2021/04/03 10:50:07;;;;;;;;;;;;;;;;;;5066709;28;835;-65
2021/04/03 10:52:32;;;;;;;;;;;;;;;;;;5066322;28;823;-64
2021/04/03 10:54:57;;;;;;;;;;;;;;;;;;5047211;28;1081;-66
2021/04/03 10:57:23;;;;;;;;;;;;;;;;;;5046717;28;816;-64
2021/04/03 10:59:49;;;;;;;;;;;;;;;;;;5047350;28;834;-64
2021/04/03 11:02:15;;;;;;;;;;;;;;;;;;5047170;28;831;-65
2021/04/03 11:04:40;;;;;;;;;;;;;;;;;;5047013;28;899;-63
2021/04/03 11:07:06;;;;;;;;;;;;;;;;;;5046998;28;1969;-64
2021/04/03 11:09:31;;;;;;;;;;;;;;;;;;5046927;28;850;-64
2021/04/03 11:11:57;;;;;;;;;;;;;;;;;;5048206;28;1577;-64
2021/04/03 11:14:22;;;;;;;;;;;;;;;;;;5050323;28;878;-65
2021/04/03 11:16:48;;;;;;;;;;;;;;;;;;5053638;28;1030;-63
2021/04/03 11:19:13;;;;;;;;;;;;;;;;;;5050245;28;871;-64
2021/04/03 11:21:38;;;;;;;;;;;;;;;;;;5050237;28;867;-64
2021/04/03 11:24:04;;;;;;;;;;;;;;;;;;5049816;28;847;-64
2021/04/03 11:26:29;;;;;;;;;;;;;;;;;;5047827;28;1914;-64
2021/04/03 11:28:55;;;;;;;;;;;;;;;;;;5049213;28;815;-64
2021/04/03 11:31:22;;;;;;;;;;;;;;;;;;5049821;28;956;-65
2021/04/03 11:33:47;;;;;;;;;;;;;;;;;;5049828;28;823;-64
2021/04/03 11:36:12;;;;;;;;;;;;;;;;;;5049637;28;828;-64
2021/04/03 11:38:38;;;;;;;;;;;;;;;;;;5049868;28;827;-63
2021/04/03 11:41:03;;;;;;;;;;;;;;;;;;5049552;28;875;-63
2021/04/03 11:43:28;;;;;;;;;;;;;;;;;;5049322;28;853;-64
2021/04/03 11:45:54;;;;;;;;;;;;;;;;;;5049523;28;1886;-64
2021/04/03 11:48:19;;;;;;;;;;;;;;;;;;5050440;28;847;-63
2021/04/03 11:50:46;;;;;;;;;;;;;;;;;;5049883;28;983;-64
2021/04/03 11:53:13;;;;;;;;;;;;;;;;;;5053321;28;1114;-63
2021/04/03 11:55:38;;;;;;;;;;;;;;;;;;5069551;28;855;-63
2021/04/03 11:58:03;;;;;;;;;;;;;;;;;;5068856;28;822;-63
2021/04/03 12:00:29;;;;;;;;;;;;;;;;;;5068678;28;937;-63
2021/04/03 12:02:54;;;;;;;;;;;;;;;;;;5069311;28;806;-64
2021/04/03 12:05:19;;;;;;;;;;;;;;;;;;5070241;28;893;-63
2021/04/03 12:07:45;;;;;;;;;;;;;;;;;;5068954;28;1914;-64
2021/04/03 12:10:15;;;;;;;;;;;;;;;;;;5068982;28;843;-63
2021/04/03 12:12:41;;;;;;;;;;;;;;;;;;5069039;28;823;-63
2021/04/03 12:15:08;;;;;;;;;;;;;;;;;;5068617;28;815;-63
2021/04/03 12:17:33;;;;;;;;;;;;;;;;;;5068137;28;851;-64
2021/04/03 12:19:58;;;;;;;;;;;;;;;;;;5068442;28;795;-64
2021/04/03 12:22:24;;;;;;;;;;;;;;;;;;5066742;28;2479;-64
2021/04/03 12:24:49;;;;;;;;;;;;;;;;;;5069350;28;823;-64
2021/04/03 12:27:15;;;;;;;;;;;;;;;;;;5069535;28;1964;-63
2021/04/03 12:29:40;;;;;;;;;;;;;;;;;;5069029;28;823;-63
2021/04/03 12:32:06;;;;;;;;;;;;;;;;;;5068472;28;867;-63
2021/04/03 12:34:31;;;;;;;;;;;;;;;;;;5068497;28;1068;-63
2021/04/03 12:36:57;;;;;;;;;;;;;;;;;;5068492;28;996;-62
2021/04/03 12:39:22;;;;;;;;;;;;;;;;;;5067980;28;854;-64
2021/04/03 12:41:47;;;;;;;;;;;;;;;;;;5068617;28;969;-62
2021/04/03 12:44:13;;;;;;;;;;;;;;;;;;5068097;28;957;-63
2021/04/03 12:46:38;;;;;;;;;;;;;;;;;;5068286;28;1890;-62
2021/04/03 12:49:03;;;;;;;;;;;;;;;;;;5066703;28;1598;-62
2021/04/03 12:51:29;;;;;;;;;;;;;;;;;;5066720;28;835;-64
2021/04/03 12:53:54;;;;;;;;;;;;;;;;;;5058037;28;1093;-66
2021/04/03 12:56:20;;;;;;;;;;;;;;;;;;5048644;28;822;-65
2021/04/03 12:58:45;;;;;;;;;;;;;;;;;;5046921;28;1111;-64
2021/04/03 13:01:13;;;;;;;;;;;;;;;;;;5048372;28;811;-65
2021/04/03 13:03:38;;;;;;;;;;;;;;;;;;5048435;28;855;-64
2021/04/03 13:06:04;;;;;;;;;;;;;;;;;;5048031;28;1971;-65
2021/04/03 13:08:29;;;;;;;;;;;;;;;;;;5047598;28;823;-64
2021/04/03 13:10:56;;;;;;;;;;;;;;;;;;5049129;28;1478;-64
2021/04/03 13:13:24;;;;;;;;;;;;;;;;;;5047690;28;850;-65
2021/04/03 13:15:49;;;;;;;;;;;;;;;;;;5048122;28;870;-63
2021/04/03 13:18:22;;;;;;;;;;;;;;;;;;5047186;28;914;-65
2021/04/03 13:20:51;;;;;;;;;;;;;;;;;;5048292;28;847;-65
2021/04/03 13:23:24;;;;;;;;;;;;;;;;;;5048662;28;725;-67
2021/04/03 13:25:51;;;;;;;;;;;;;;;;;;5048169;28;1882;-65
2021/04/03 13:28:21;;;;;;;;;;;;;;;;;;5048707;28;1349;-66
2021/04/03 13:30:54;;;;;;;;;;;;;;;;;;5046389;28;1489;-66
2021/04/03 13:33:25;;;;;;;;;;;;;;;;;;5047081;28;1408;-64
2021/04/03 13:35:51;;;;;;;;;;;;;;;;;;5044075;28;1641;-66
2021/04/03 13:38:20;;;;;;;;;;;;;;;;;;5043250;28;1652;-67
2021/04/03 13:40:51;;;;;;;;;;;;;;;;;;5047466;28;1175;-65
2021/04/03 13:43:17;;;;;;;;;;;;;;;;;;5039058;28;1707;-63
2021/04/03 13:45:42;;;;;;;;;;;;;;;;;;5026079;28;1901;-64
2021/04/03 13:48:08;;;;;;;;;;;;;;;;;;5027207;28;865;-64
2021/04/03 13:50:34;;;;;;;;;;;;;;;;;;5027166;28;858;-64
2021/04/03 13:52:59;;;;;;;;;;;;;;;;;;5045741;28;1612;-64
2021/04/03 13:55:25;;;;;;;;;;;;;;;;;;5066870;28;842;-64
2021/04/03 13:57:50;;;;;;;;;;;;;;;;;;5067518;28;953;-64
2021/04/03 14:00:16;;;;;;;;;;;;;;;;;;5067742;28;1012;-64
2021/04/03 14:02:41;;;;;;;;;;;;;;;;;;5067213;28;1357;-64
2021/04/03 14:05:08;;;;;;;;;;;;;;;;;;5067094;28;826;-64
2021/04/03 14:07:33;;;;;;;;;;;;;;;;;;5066944;28;1898;-64
2021/04/03 14:09:59;;;;;;;;;;;;;;;;;;5051729;28;1631;-64
2021/04/03 14:12:25;;;;;;;;;;;;;;;;;;5047130;28;835;-64
2021/04/03 14:14:51;;;;;;;;;;;;;;;;;;5047796;28;848;-65
2021/04/03 14:17:17;;;;;;;;;;;;;;;;;;5047105;28;1218;-64
2021/04/03 14:19:42;;;;;;;;;;;;;;;;;;5047425;28;815;-64
2021/04/03 14:22:08;;;;;;;;;;;;;;;;;;5046884;28;822;-64
2021/04/03 14:24:33;;;;;;;;;;;;;;;;;;5046906;28;811;-64
2021/04/03 14:26:59;;;;;;;;;;;;;;;;;;5047033;28;1898;-64
2021/04/03 14:29:24;;;;;;;;;;;;;;;;;;5046942;28;902;-64
2021/04/03 14:31:55;;;;;;;;;;;;;;;;;;5047865;28;847;-65
2021/04/03 14:34:23;;;;;;;;;;;;;;;;;;5047986;28;914;-64
2021/04/03 14:36:51;;;;;;;;;;;;;;;;;;5047366;28;846;-64
2021/04/03 14:39:20;;;;;;;;;;;;;;;;;;5045847;28;1283;-64
2021/04/03 14:41:49;;;;;;;;;;;;;;;;;;5045771;28;1208;-65
2021/04/03 14:44:20;;;;;;;;;;;;;;;;;;5047689;28;1690;-65
2021/04/03 14:46:49;;;;;;;;;;;;;;;;;;5050903;28;1971;-65
2021/04/03 14:49:19;;;;;;;;;;;;;;;;;;5031042;28;847;-64
2021/04/03 14:51:47;;;;;;;;;;;;;;;;;;5031152;28;836;-59
2021/04/03 14:54:14;;;;;;;;;;;;;;;;;;5037644;28;1576;-64
2021/04/03 14:56:40;;;;;;;;;;;;;;;;;;5054568;28;1201;-62
2021/04/03 14:59:05;;;;;;;;;;;;;;;;;;5048476;28;2070;-62
2021/04/03 15:01:31;;;;;;;;;;;;;;;;;;5037939;28;1695;-62
2021/04/03 15:03:57;;;;;;;;;;;;;;;;;;5041630;28;1705;-63
2021/04/03 15:06:23;;;;;;;;;;;;;;;;;;5040269;28;1898;-63
2021/04/03 15:08:49;;;;;;;;;;;;;;;;;;5039967;28;1953;-62
2021/04/03 15:11:14;;;;;;;;;;;;;;;;;;5042320;28;1823;-62
2021/04/03 15:13:39;;;;;;;;;;;;;;;;;;5037477;28;1722;-62
2021/04/03 15:16:05;;;;;;;;;;;;;;;;;;5041410;28;1077;-62
2021/04/03 15:18:30;;;;;;;;;;;;;;;;;;5036139;28;1949;-60
2021/04/03 15:20:55;;;;;;;;;;;;;;;;;;5036001;28;1792;-62
2021/04/03 15:23:21;;;;;;;;;;;;;;;;;;5042470;28;2521;-62
2021/04/03 15:25:46;;;;;;;;;;;;;;;;;;5041975;28;1972;-62
2021/04/03 15:28:12;;;;;;;;;;;;;;;;;;5045127;28;1702;-61
2021/04/03 15:30:37;;;;;;;;;;;;;;;;;;5045335;28;1803;-61
2021/04/03 15:33:03;;;;;;;;;;;;;;;;;;5033987;28;1691;-62
2021/04/03 15:35:28;;;;;;;;;;;;;;;;;;5042664;28;1757;-65
2021/04/03 15:37:53;;;;;;;;;;;;;;;;;;5039117;28;977;-64
2021/04/03 15:40:19;;;;;;;;;;;;;;;;;;5045546;28;1763;-64
2021/04/03 15:42:44;;;;;;;;;;;;;;;;;;5045230;28;1707;-63
2021/04/03 15:45:10;;;;;;;;;;;;;;;;;;5042810;28;1699;-64
2021/04/03 15:47:35;;;;;;;;;;;;;;;;;;5042032;28;2035;-65
2021/04/03 15:50:01;;;;;;;;;;;;;;;;;;5041361;28;994;-65
2021/04/03 15:52:26;;;;;;;;;;;;;;;;;;5041980;28;1740;-62
2021/04/03 15:54:52;;;;;;;;;;;;;;;;;;5034588;28;1708;-64
2021/04/03 15:57:17;;;;;;;;;;;;;;;;;;5036474;28;874;-61
2021/04/03 15:59:43;;;;;;;;;;;;;;;;;;5036815;28;1711;-60
2021/04/03 16:02:08;;;;;;;;;;;;;;;;;;5038426;28;1661;-61
2021/04/03 16:04:34;;;;;;;;;;;;;;;;;;5033309;28;1915;-60
2021/04/03 16:07:01;;;;;;;;;;;;;;;;;;5029955;28;1902;-60
2021/04/03 16:09:26;;;;;;;;;;;;;;;;;;5040082;28;1104;-59
2021/04/03 16:11:52;;;;;;;;;;;;;;;;;;5042492;28;1734;-61
2021/04/03 16:14:17;;;;;;;;;;;;;;;;;;5046416;28;1156;-60
2021/04/03 16:16:42;;;;;;;;;;;;;;;;;;5035250;28;1941;-59
2021/04/03 16:19:08;;;;;;;;;;;;;;;;;;5034026;28;1751;-63
2021/04/03 16:21:33;;;;;;;;;;;;;;;;;;5038560;28;1002;-61
2021/04/03 16:23:59;;;;;;;;;;;;;;;;;;5031420;28;2131;-59
2021/04/03 16:26:24;;;;;;;;;;;;;;;;;;5038104;28;2020;-60
2021/04/03 16:28:50;;;;;;;;;;;;;;;;;;5033719;28;1806;-59
2021/04/03 16:31:15;;;;;;;;;;;;;;;;;;5032789;28;1727;-59
2021/04/03 16:33:40;;;;;;;;;;;;;;;;;;5031553;28;1732;-59
2021/04/03 16:36:06;;;;;;;;;;;;;;;;;;5033479;28;827;-59
2021/04/03 16:38:31;;;;;;;;;;;;;;;;;;5037773;28;1958;-60
2021/04/03 16:40:57;;;;;;;;;;;;;;;;;;5029336;28;2032;-59
2021/04/03 16:43:22;;;;;;;;;;;;;;;;;;5035224;28;1889;-60
2021/04/03 16:45:47;;;;;;;;;;;;;;;;;;5038198;28;1972;-59
2021/04/03 16:48:13;;;;;;;;;;;;;;;;;;5035474;28;1751;-59
2021/04/03 16:50:38;;;;;;;;;;;;;;;;;;5032414;28;1696;-60
2021/04/03 16:53:03;;;;;;;;;;;;;;;;;;5036305;28;1691;-59
2021/04/03 16:55:29;;;;;;;;;;;;;;;;;;5032302;28;1775;-60
2021/04/03 16:57:54;;;;;;;;;;;;;;;;;;5045946;28;1171;-61
2021/04/03 17:00:20;;;;;;;;;;;;;;;;;;5040145;28;1814;-61
2021/04/03 17:02:45;;;;;;;;;;;;;;;;;;5040474;28;1688;-60
2021/04/03 17:05:11;;;;;;;;;;;;;;;;;;5040081;28;1665;-60
2021/04/03 17:07:37;;;;;;;;;;;;;;;;;;5039271;28;1902;-59
2021/04/03 17:10:03;;;;;;;;;;;;;;;;;;5035306;28;978;-60